createdAt,value
2019-01-27T00:00:06.622Z,6.50
2019-01-27T00:02:47.231Z,6.60
2019-01-27T00:05:28.226Z,6.70
2019-01-27T00:08:13.425Z,6.60
2019-01-27T00:10:51.742Z,6.70
2019-01-27T00:13:32.560Z,6.50
2019-01-27T00:16:13.448Z,6.60
2019-01-27T00:18:54.108Z,6.70
2019-01-27T00:21:34.809Z,6.70
2019-01-27T00:24:15.873Z,6.70
2019-01-27T00:26:56.489Z,6.80
2019-01-27T00:29:37.173Z,6.80
2019-01-27T00:32:18.040Z,6.80
2019-01-27T00:34:58.816Z,6.80
2019-01-27T00:37:39.456Z,6.90
2019-01-27T00:40:19.880Z,6.80
2019-01-27T00:43:00.820Z,6.80
2019-01-27T00:45:42.204Z,6.80
2019-01-27T00:48:23.101Z,6.80
2019-01-27T00:51:03.975Z,6.80
2019-01-27T00:53:44.360Z,6.90
2019-01-27T00:56:25.305Z,6.70
2019-01-27T00:59:05.643Z,6.70
2019-01-27T01:01:46.605Z,6.80
2019-01-27T01:04:27.226Z,6.80
2019-01-27T01:07:07.876Z,6.70
2019-01-27T01:09:48.541Z,6.70
2019-01-27T01:12:29.025Z,6.80
2019-01-27T01:15:09.561Z,6.60
2019-01-27T01:17:50.447Z,6.80
2019-01-27T01:20:31.085Z,6.80
2019-01-27T01:23:11.670Z,6.70
2019-01-27T01:25:52.504Z,6.60
2019-01-27T01:28:33.292Z,6.70
2019-01-27T01:31:14.176Z,6.60
2019-01-27T01:33:54.748Z,6.60
2019-01-27T01:36:35.801Z,6.60
2019-01-27T01:39:16.041Z,6.60
2019-01-27T01:41:56.901Z,6.60
2019-01-27T01:44:37.904Z,6.60
2019-01-27T01:47:18.874Z,6.70
2019-01-27T01:49:59.668Z,6.60
2019-01-27T01:52:40.616Z,6.60
2019-01-27T01:55:21.306Z,6.60
2019-01-27T01:58:02.432Z,6.70
2019-01-27T02:00:43.386Z,6.70
2019-01-27T02:03:24.021Z,6.70
2019-01-27T02:06:04.844Z,6.80
2019-01-27T02:08:33.271Z,6.80
2019-01-27T02:11:21.031Z,6.70
2019-01-27T02:14:08.888Z,6.70
2019-01-27T02:16:56.654Z,6.70
2019-01-27T02:19:44.401Z,6.80
2019-01-27T02:22:32.156Z,6.70
2019-01-27T02:25:13.845Z,6.70
2019-01-27T02:27:54.712Z,6.70
2019-01-27T02:30:35.620Z,6.60
2019-01-27T02:33:16.599Z,6.60
2019-01-27T02:35:58.029Z,6.80
2019-01-27T02:38:38.560Z,6.80
2019-01-27T02:41:19.752Z,6.70
2019-01-27T02:44:00.662Z,6.70
2019-01-27T02:46:41.636Z,6.80
2019-01-27T02:49:10.739Z,6.80
2019-01-27T02:51:58.509Z,6.80
2019-01-27T02:54:46.313Z,6.80
2019-01-27T02:57:34.078Z,6.70
2019-01-27T03:00:22.417Z,6.70
2019-01-27T03:03:10.175Z,6.60
2019-01-27T03:06:17.142Z,6.70
2019-01-27T03:09:25.641Z,6.70
2019-01-27T03:12:13.656Z,6.60
2019-01-27T03:15:01.473Z,6.50
2019-01-27T03:17:49.244Z,6.50
2019-01-27T03:20:37.106Z,6.60
2019-01-27T03:23:24.934Z,6.50
2019-01-27T03:26:12.933Z,6.40
2019-01-27T03:29:00.690Z,6.60
2019-01-27T03:31:48.449Z,6.60
2019-01-27T03:34:36.197Z,6.60
2019-01-27T03:37:23.981Z,6.60
2019-01-27T03:40:31.125Z,6.50
2019-01-27T03:43:18.910Z,6.50
2019-01-27T03:46:06.743Z,6.50
2019-01-27T03:48:54.505Z,6.50
2019-01-27T03:51:42.280Z,6.60
2019-01-27T03:54:30.285Z,6.70
2019-01-27T03:57:18.053Z,6.50
2019-01-27T03:59:46.480Z,6.70
2019-01-27T04:02:34.220Z,6.60
2019-01-27T04:05:21.999Z,6.70
2019-01-27T04:08:09.780Z,6.60
2019-01-27T04:10:57.895Z,6.50
2019-01-27T04:13:45.662Z,6.50
2019-01-27T04:16:33.392Z,6.60
2019-01-27T04:19:21.163Z,6.70
2019-01-27T04:22:09.241Z,6.80
2019-01-27T04:24:49.520Z,6.50
2019-01-27T04:27:30.521Z,6.60
2019-01-27T04:29:58.931Z,6.70
2019-01-27T04:32:46.686Z,6.60
2019-01-27T04:38:33.191Z,6.60
2019-01-27T04:41:20.993Z,6.70
2019-01-27T04:44:08.729Z,6.70
2019-01-27T04:46:56.588Z,6.60
2019-01-27T04:49:44.362Z,6.50
2019-01-27T04:52:32.101Z,6.70
2019-01-27T04:55:20.439Z,6.60
2019-01-27T04:58:08.278Z,6.70
2019-01-27T05:00:56.093Z,6.70
2019-01-27T05:06:52.541Z,6.50
2019-01-27T05:09:40.295Z,6.50
2019-01-27T05:12:28.035Z,6.40
2019-01-27T05:15:35.118Z,6.30
2019-01-27T05:18:22.849Z,6.40
2019-01-27T05:21:10.607Z,6.50
2019-01-27T05:23:58.368Z,6.60
2019-01-27T05:26:39.597Z,6.50
2019-01-27T05:29:20.250Z,6.50
2019-01-27T05:32:00.839Z,6.60
2019-01-27T05:34:41.984Z,6.50
2019-01-27T05:37:22.369Z,6.50
2019-01-27T05:40:02.630Z,6.60
2019-01-27T05:42:43.569Z,6.60
2019-01-27T05:45:24.522Z,6.60
2019-01-27T05:48:05.188Z,6.60
2019-01-27T05:50:45.710Z,6.60
2019-01-27T05:53:26.366Z,6.60
2019-01-27T05:56:07.183Z,6.60
2019-01-27T05:58:48.205Z,6.70
2019-01-27T06:01:28.768Z,6.60
2019-01-27T06:04:09.228Z,6.50
2019-01-27T06:06:50.017Z,6.50
2019-01-27T06:09:30.725Z,6.50
2019-01-27T06:12:11.312Z,6.50
2019-01-27T06:14:51.899Z,6.50
2019-01-27T06:17:32.245Z,6.60
2019-01-27T06:20:13.085Z,6.50
2019-01-27T06:22:53.908Z,6.70
2019-01-27T06:25:34.705Z,6.60
2019-01-27T06:28:15.432Z,6.50
2019-01-27T06:30:55.966Z,6.50
2019-01-27T06:33:38.038Z,6.40
2019-01-27T06:36:19.164Z,6.40
2019-01-27T06:39:00.065Z,6.60
2019-01-27T06:41:41.282Z,6.60
2019-01-27T06:44:22.045Z,6.50
2019-01-27T06:47:02.902Z,6.50
2019-01-27T06:49:43.537Z,6.50
2019-01-27T06:52:24.492Z,6.60
2019-01-27T06:55:04.956Z,6.70
2019-01-27T06:57:45.551Z,6.50
2019-01-27T07:00:27.828Z,6.40
2019-01-27T07:03:27.251Z,6.50
2019-01-27T07:06:09.364Z,6.60
2019-01-27T07:08:51.992Z,6.60
2019-01-27T07:11:33.956Z,6.60
2019-01-27T07:14:33.418Z,6.50
2019-01-27T07:17:33.178Z,6.60
2019-01-27T07:20:15.356Z,6.50
2019-01-27T07:23:15.736Z,6.40
2019-01-27T07:26:15.764Z,6.50
2019-01-27T07:29:01.022Z,6.50
2019-01-27T07:32:01.249Z,6.60
2019-01-27T07:37:38.126Z,6.60
2019-01-27T07:40:38.672Z,6.70
2019-01-27T07:43:21.271Z,6.80
2019-01-27T07:51:40.557Z,6.50
2019-01-27T07:54:41.060Z,6.70
2019-01-27T07:57:41.092Z,6.80
2019-01-27T08:00:23.062Z,6.80
2019-01-27T08:03:04.347Z,6.80
2019-01-27T08:06:04.608Z,6.70
2019-01-27T08:08:51.187Z,6.80
2019-01-27T08:11:32.813Z,6.70
2019-01-27T08:17:06.013Z,6.70
2019-01-27T08:19:48.441Z,6.80
2019-01-27T08:22:33.862Z,6.80
2019-01-27T08:25:34.024Z,6.80
2019-01-27T08:28:19.079Z,6.80
2019-01-27T08:31:04.267Z,6.80
2019-01-27T08:33:48.142Z,6.80
2019-01-27T08:39:41.834Z,6.80
2019-01-27T08:42:43.376Z,6.70
2019-01-27T08:45:26.076Z,6.70
2019-01-27T08:48:07.085Z,6.70
2019-01-27T08:50:48.334Z,6.70
2019-01-27T08:53:28.953Z,6.60
2019-01-27T08:56:09.720Z,6.60
2019-01-27T08:58:50.494Z,6.70
2019-01-27T09:01:33.269Z,6.80
2019-01-27T09:07:13.029Z,6.70
2019-01-27T09:09:57.596Z,6.70
2019-01-27T09:12:57.503Z,6.80
2019-01-27T09:19:12.952Z,6.70
2019-01-27T09:25:29.029Z,6.80
2019-01-27T09:31:30.621Z,6.90
2019-01-27T09:34:37.666Z,7.00
2019-01-27T09:37:44.628Z,6.90
2019-01-27T09:40:51.724Z,7.10
2019-01-27T09:46:47.915Z,7.00
2019-01-27T09:52:53.626Z,7.10
2019-01-27T09:59:12.088Z,7.10
2019-01-27T10:05:28.099Z,7.00
2019-01-27T10:14:40.858Z,7.10
2019-01-27T10:17:47.817Z,7.20
2019-01-27T10:20:55.040Z,7.30
2019-01-27T10:24:01.986Z,7.10
2019-01-27T10:29:57.160Z,7.20
2019-01-27T10:32:56.941Z,7.20
2019-01-27T10:35:57.331Z,7.10
2019-01-27T10:38:39.700Z,7.00
2019-01-27T10:44:17.944Z,7.00
2019-01-27T10:47:17.415Z,7.00
2019-01-27T10:49:59.574Z,7.00
2019-01-27T10:52:59.050Z,7.00
2019-01-27T10:55:44.171Z,7.00
2019-01-27T10:58:26.052Z,7.00
2019-01-27T11:04:01.577Z,7.10
2019-01-27T11:06:44.492Z,7.00
2019-01-27T11:09:44.636Z,7.00
2019-01-27T11:12:44.494Z,7.10
2019-01-27T11:15:53.770Z,7.10
2019-01-27T11:18:55.463Z,7.20
2019-01-27T11:24:30.973Z,7.20
2019-01-27T11:27:16.578Z,7.30
2019-01-27T11:30:02.363Z,7.10
2019-01-27T11:33:02.693Z,7.00
2019-01-27T11:35:48.218Z,7.00
2019-01-27T11:38:33.522Z,7.10
2019-01-27T11:41:33.723Z,7.00
2019-01-27T11:44:21.144Z,7.10
2019-01-27T11:47:06.435Z,7.10
2019-01-27T11:49:48.501Z,7.10
2019-01-27T11:52:29.782Z,7.10
2019-01-27T11:55:10.711Z,7.10
2019-01-27T11:57:53.309Z,7.10
2019-01-27T12:00:35.946Z,7.00
2019-01-27T12:03:16.892Z,7.00
2019-01-27T12:05:57.834Z,7.10
2019-01-27T12:08:39.031Z,7.10
2019-01-27T12:11:19.645Z,7.20
2019-01-27T12:14:00.673Z,7.10
2019-01-27T12:16:41.084Z,7.10
2019-01-27T12:19:21.908Z,7.20
2019-01-27T12:22:02.807Z,7.30
2019-01-27T12:24:44.043Z,7.20
2019-01-27T12:27:26.399Z,7.20
2019-01-27T12:30:06.762Z,7.30
2019-01-27T12:32:47.905Z,7.30
2019-01-27T12:35:28.333Z,7.30
2019-01-27T12:38:09.576Z,7.20
2019-01-27T12:40:50.332Z,7.30
2019-01-27T12:43:33.863Z,7.30
2019-01-27T12:46:14.705Z,7.30
2019-01-27T12:48:55.877Z,7.30
2019-01-27T12:51:36.253Z,7.30
2019-01-27T12:57:16.259Z,7.40
2019-01-27T13:00:00.263Z,7.50
2019-01-27T13:02:28.860Z,7.50
2019-01-27T13:05:28.494Z,7.60
2019-01-27T13:08:06.198Z,7.60
2019-01-27T13:11:08.049Z,7.60
2019-01-27T13:13:43.682Z,7.60
2019-01-27T13:16:31.503Z,7.80
2019-01-27T13:19:19.264Z,7.50
2019-01-27T13:22:28.021Z,7.60
2019-01-27T13:25:16.425Z,7.60
2019-01-27T13:28:04.581Z,7.60
2019-01-27T13:30:52.389Z,7.50
2019-01-27T13:33:47.172Z,7.50
2019-01-27T13:36:28.178Z,7.60
2019-01-27T13:39:08.941Z,7.50
2019-01-27T13:41:49.421Z,7.60
2019-01-27T13:44:30.439Z,7.50
2019-01-27T13:46:58.944Z,7.50
2019-01-27T13:49:46.727Z,7.50
2019-01-27T13:52:34.948Z,7.60
2019-01-27T13:55:42.055Z,7.50
2019-01-27T13:58:29.880Z,7.40
2019-01-27T14:01:17.746Z,7.40
2019-01-27T14:04:05.685Z,7.50
2019-01-27T14:06:53.453Z,7.40
2019-01-27T14:09:41.303Z,7.80
2019-01-27T14:12:44.157Z,7.70
2019-01-27T14:15:40.612Z,7.50
2019-01-27T14:18:49.084Z,7.50
2019-01-27T14:21:36.887Z,7.50
2019-01-27T14:24:24.637Z,7.50
2019-01-27T14:27:05.208Z,7.40
2019-01-27T14:29:46.385Z,7.40
2019-01-27T14:32:14.854Z,7.40
2019-01-27T14:35:02.792Z,7.50
2019-01-27T14:37:50.524Z,7.50
2019-01-27T14:40:38.299Z,7.40
2019-01-27T14:43:26.338Z,7.50
2019-01-27T14:46:14.133Z,7.50
2019-01-27T14:49:01.910Z,7.50
2019-01-27T14:51:49.656Z,7.50
2019-01-27T14:54:37.432Z,7.50
2019-01-27T14:57:25.283Z,7.50
2019-01-27T15:00:36.394Z,7.60
2019-01-27T15:03:23.308Z,7.50
2019-01-27T15:06:11.339Z,7.60
2019-01-27T15:08:59.388Z,7.60
2019-01-27T15:11:47.140Z,7.60
2019-01-27T15:14:35.017Z,7.70
2019-01-27T15:17:22.761Z,7.60
2019-01-27T15:20:12.069Z,7.60
2019-01-27T15:22:59.912Z,7.50
2019-01-27T15:25:47.688Z,7.50
2019-01-27T15:28:28.758Z,7.50
2019-01-27T15:31:09.609Z,7.50
2019-01-27T15:33:50.017Z,7.50
2019-01-27T15:36:31.207Z,7.50
2019-01-27T15:39:11.467Z,7.60
2019-01-27T15:41:52.593Z,7.70
2019-01-27T15:47:15.563Z,7.60
2019-01-27T15:49:56.325Z,7.50
2019-01-27T15:52:36.839Z,7.50
2019-01-27T15:55:17.681Z,7.60
2019-01-27T15:57:58.443Z,7.50
2019-01-27T16:00:39.561Z,7.60
2019-01-27T16:03:20.204Z,7.70
2019-01-27T16:06:01.322Z,7.70
2019-01-27T16:08:42.380Z,7.60
2019-01-27T16:11:23.526Z,7.50
2019-01-27T16:14:04.553Z,7.60
2019-01-27T16:16:45.043Z,7.60
2019-01-27T16:19:25.998Z,7.60
2019-01-27T16:22:07.149Z,7.50
2019-01-27T16:24:47.956Z,7.60
2019-01-27T16:27:29.173Z,7.50
2019-01-27T16:30:09.722Z,7.50
2019-01-27T16:32:51.590Z,7.50
2019-01-27T16:35:32.492Z,7.50
2019-01-27T16:38:13.348Z,7.40
2019-01-27T16:40:54.217Z,7.40
2019-01-27T16:43:34.760Z,7.50
2019-01-27T16:46:16.278Z,7.50
2019-01-27T16:48:57.121Z,7.50
2019-01-27T16:51:37.443Z,7.50
2019-01-27T16:54:18.278Z,7.50
2019-01-27T16:56:58.519Z,7.50
2019-01-27T16:59:37.229Z,7.60
2019-01-27T17:02:25.030Z,7.60
2019-01-27T17:05:33.606Z,7.60
2019-01-27T17:08:21.383Z,7.60
2019-01-27T17:11:09.248Z,7.60
2019-01-27T17:13:57.048Z,7.50
2019-01-27T17:16:44.816Z,7.50
2019-01-27T17:19:32.552Z,7.40
2019-01-27T17:22:20.368Z,7.50
2019-01-27T17:25:28.874Z,7.40
2019-01-27T17:28:16.642Z,7.50
2019-01-27T17:31:04.509Z,7.40
2019-01-27T17:33:45.493Z,7.50
2019-01-27T17:36:26.462Z,7.60
2019-01-27T17:39:09.632Z,7.60
2019-01-27T17:41:49.973Z,7.50
2019-01-27T17:44:30.961Z,7.50
2019-01-27T17:47:11.548Z,7.50
2019-01-27T17:49:52.235Z,7.50
2019-01-27T17:52:32.848Z,7.50
2019-01-27T17:55:15.729Z,7.40
2019-01-27T17:57:58.322Z,7.50
2019-01-27T18:00:57.757Z,7.40
2019-01-27T18:07:04.708Z,7.50
2019-01-27T18:12:40.073Z,7.50
2019-01-27T18:15:20.985Z,7.60
2019-01-27T18:18:01.826Z,7.50
2019-01-27T18:20:43.104Z,7.60
2019-01-27T18:23:24.127Z,7.50
2019-01-27T18:26:04.758Z,7.50
2019-01-27T18:28:45.408Z,7.50
2019-01-27T18:31:26.108Z,7.50
2019-01-27T18:34:06.848Z,7.60
2019-01-27T18:36:47.757Z,7.60
2019-01-27T18:39:28.668Z,7.60
2019-01-27T18:42:11.808Z,7.70
2019-01-27T18:44:52.696Z,7.70
2019-01-27T18:47:33.259Z,7.70
2019-01-27T18:50:14.221Z,7.60
2019-01-27T18:52:56.515Z,7.60
2019-01-27T18:55:44.154Z,7.50
2019-01-27T18:58:51.080Z,7.50
2019-01-27T19:01:58.075Z,7.50
2019-01-27T19:05:05.037Z,7.60
2019-01-27T19:08:12.002Z,7.50
2019-01-27T19:11:19.298Z,7.60
2019-01-27T19:14:26.261Z,7.60
2019-01-27T19:26:35.030Z,7.60
2019-01-27T19:32:36.515Z,7.70
2019-01-27T19:35:43.499Z,7.60
2019-01-27T19:38:50.493Z,7.60
2019-01-27T19:41:57.690Z,7.70
2019-01-27T19:44:45.745Z,7.80
2019-01-27T19:47:52.777Z,7.70
2019-01-27T19:50:59.726Z,7.70
2019-01-27T20:00:04.501Z,7.50
2019-01-27T20:03:11.710Z,7.60
2019-01-27T20:06:18.730Z,7.70
2019-01-27T20:09:26.657Z,7.70
2019-01-27T20:12:33.721Z,7.70
2019-01-27T20:15:40.803Z,7.60
2019-01-27T20:18:47.805Z,7.70
2019-01-27T20:21:55.055Z,7.60
2019-01-27T20:25:02.016Z,7.80
2019-01-27T20:28:09.625Z,7.80
2019-01-27T20:36:38.799Z,7.90
2019-01-27T20:39:38.368Z,7.90
2019-01-27T20:42:20.191Z,7.80
2019-01-27T20:45:05.652Z,7.70
2019-01-27T20:47:51.603Z,7.50
2019-01-27T20:53:41.427Z,7.60
2019-01-27T20:59:48.244Z,7.60
2019-01-27T21:02:47.889Z,7.80
2019-01-27T21:05:29.885Z,7.70
2019-01-27T21:08:14.469Z,7.50
2019-01-27T21:11:14.237Z,7.60
2019-01-27T21:17:03.969Z,7.60
2019-01-27T21:19:45.955Z,7.50
2019-01-27T21:22:27.188Z,7.30
2019-01-27T21:25:07.765Z,7.30
2019-01-27T21:27:49.329Z,7.40
2019-01-27T21:30:30.267Z,7.40
2019-01-27T21:32:58.794Z,7.30
2019-01-27T21:35:46.553Z,7.20
2019-01-27T21:38:34.664Z,7.40
2019-01-27T21:41:22.425Z,7.30
2019-01-27T21:44:10.246Z,7.30
2019-01-27T21:46:58.010Z,7.20
2019-01-27T21:49:46.134Z,7.10
2019-01-27T21:52:34.219Z,7.20
2019-01-27T21:55:14.932Z,7.40
2019-01-27T21:57:55.964Z,7.60
2019-01-27T22:00:36.769Z,7.40
2019-01-27T22:03:17.797Z,7.50
2019-01-27T22:05:58.641Z,7.10
2019-01-27T22:08:39.286Z,7.00
2019-01-27T22:11:20.447Z,7.20
2019-01-27T22:14:01.020Z,7.30
2019-01-27T22:16:42.020Z,7.20
2019-01-27T22:19:22.561Z,7.50
2019-01-27T22:22:03.627Z,7.40
2019-01-27T22:24:44.640Z,7.10
2019-01-27T22:27:24.937Z,7.00
2019-01-27T22:30:06.034Z,6.90
2019-01-27T22:32:46.669Z,7.00
2019-01-27T22:35:27.280Z,7.00
2019-01-27T22:38:07.944Z,6.90
2019-01-27T22:40:48.754Z,6.90
2019-01-27T22:43:29.545Z,6.90
2019-01-27T22:46:10.294Z,6.80
2019-01-27T22:48:51.365Z,6.90
2019-01-27T22:51:31.749Z,6.90
2019-01-27T22:54:12.893Z,7.00
2019-01-27T22:56:53.672Z,6.90
2019-01-27T22:59:34.447Z,6.70
2019-01-27T23:02:15.081Z,6.80
2019-01-27T23:04:55.998Z,6.60
2019-01-27T23:07:36.511Z,6.80
2019-01-27T23:10:17.237Z,6.80
2019-01-27T23:12:58.030Z,6.70
2019-01-27T23:15:38.900Z,6.70
2019-01-27T23:18:19.700Z,6.70
2019-01-27T23:21:00.453Z,6.80
2019-01-27T23:23:41.085Z,6.70
2019-01-27T23:26:23.095Z,6.60
2019-01-27T23:29:03.821Z,6.60
2019-01-27T23:34:26.962Z,6.70
2019-01-27T23:37:07.846Z,6.60
2019-01-27T23:42:31.544Z,6.50
2019-01-27T23:45:12.330Z,6.80
2019-01-27T23:47:53.085Z,6.60
2019-01-27T23:50:33.833Z,6.60
2019-01-27T23:53:15.010Z,6.60
2019-01-27T23:55:55.569Z,6.60
2019-01-27T23:58:36.539Z,6.60
